Hatley, WI (54440)

7:20 AM CST on February 07, 2016 (GMT -0600)
Weston Weather Station | | Change Station
CLOSE
Current Station
Personal Weather Station
Location: Weston, WI
Elevation: 1214 ft
Nearby Weather Stations

Elev 1214 ft 44.91 °N, 89.55 °W | Updated 6 minutes ago

Overcast
Overcast
29.8 °F
Feels Like 25 °F
N
4.7
Wind Variable Wind from South

Today
High -- | Low -- °F
--% Chance of Precip.
Yesterday
High -- | Low -- °F
Precip. -- in
Pressure 29.66 in
Visibility 7.0 miles
Clouds Few 1500 ft
Mostly Cloudy 2500 ft
Overcast 6000 ft
Windchill 25 °F
Dew Point 28 °F
Humidity 91%
Rainfall 0.00 in
Snow Depth Not available.
7:10 AM 5:13 PM
Waning Crescent, 2% visible
METAR KAUW 071254Z AUTO 19007KT 7SM -SN FEW015 BKN025 OVC060 00/M02 A2961 RMK AO2 SNB52 SLP043 P0000 T00001022
Pressure 29.66 in
Visibility 7.0 miles
Clouds Few 1500 ft
Mostly Cloudy 2500 ft
Overcast 6000 ft
Windchill 25 °F
Dew Point 28 °F
Humidity 91%
Rainfall 0.00 in
Snow Depth Not available.
7:10 AM 5:13 PM
Waning Crescent, 2% visible
METAR KAUW 071254Z AUTO 19007KT 7SM -SN FEW015 BKN025 OVC060 00/M02 A2961 RMK AO2 SNB52 SLP043 P0000 T00001022

10-Day Weather Forecast

Almanac

Astronomy

Feb. 07, 2016 Rise Set
Actual Time
Civil Twilight
Nautical Twilight
Astronomical Twilight
Moon
Length of Visible Light
Length of Day
Tomorrow will be .
, % of the Moon is Illuminated

Today's Extremes

State Highs State Lows

Community

WunderPhotos

Upload Photos

1,891,190 photos uploaded!

WunderBlog® & News

Nearby

Air Quality

  Air Quality AQ Index Pollutant
Not available.

Snow Depth

Station Depth Elevation

Earthquake Activity

City Distance Mag. Time & Date
Minimum magnitude displayed is 2.5.

Coastal Water Temperatures

Place Temperature

Stations

Nearby Weather Stations

Station Location Temp. Windchill Dew Point Humidity Wind Precip. Elev Updated Type
                   

Watches & Warnings

There are currently no watches in effect.